Time;durP1;ratioP1;P1;durP2;ratioP2;P2;SDS_P1;SDS_P2;PMS_P1;PMS_P2;Temp;Humidity;BMP_temperature;BMP_pressure;BME280_temperature;BME280_humidity;BME280_pressure;Samples;Min_cycle;Max_cycle;Signal;HPM_P1;HPM_P2
2022/04/28 00:01:32;;;;;;;4.60;1.70;;;;;;;4.74;65.53;101649.56;6285684;22;20022;-76
2022/04/28 00:03:58;;;;;;;6.28;1.73;;;;;;;4.90;65.38;101667.41;6309648;22;20325;-74
2022/04/28 00:06:24;;;;;;;7.60;1.65;;;;;;;4.91;65.45;101666.38;6315004;22;20010;-73
2022/04/28 00:08:55;;;;;;;6.03;1.50;;;;;;;4.78;65.17;101656.28;6285224;22;20003;-75
2022/04/28 00:11:43;;;;;;;3.53;1.60;;;;;;;4.87;65.66;101673.22;6288813;22;20014;-76
2022/04/28 00:14:21;;;;;;;2.25;1.38;;;;;;;4.78;65.62;101677.97;6313189;22;19999;-75
2022/04/28 00:16:57;;;;;;;4.80;1.65;;;;;;;4.41;65.71;101625.78;6285415;22;20027;-75
2022/04/28 00:19:24;;;;;;;1.42;1.20;;;;;;;4.52;65.58;101643.38;6285697;22;20232;-75
2022/04/28 00:21:52;;;;;;;3.67;1.30;;;;;;;4.69;65.55;101671.03;6287267;22;20003;-76
2022/04/28 00:24:21;;;;;;;8.20;1.33;;;;;;;4.65;65.56;101665.16;6287860;22;20003;-75
2022/04/28 00:26:47;;;;;;;3.90;1.60;;;;;;;4.32;65.70;101619.66;6286255;22;20345;-76
2022/04/28 00:29:29;;;;;;;1.23;1.00;;;;;;;4.54;66.08;101654.84;6288451;22;20007;-77
2022/04/28 00:31:55;;;;;;;5.47;1.63;;;;;;;4.42;66.10;101648.28;6286664;22;20418;-75
2022/04/28 00:34:26;;;;;;;2.42;1.33;;;;;;;4.29;66.11;101632.75;6314240;22;19995;-76
2022/04/28 00:36:51;;;;;;;7.25;1.77;;;;;;;4.58;66.55;101679.69;6286241;22;20066;-75
2022/04/28 00:39:45;;;;;;;6.70;2.03;;;;;;;4.39;66.47;101644.09;6289213;22;20021;-77
2022/04/28 00:42:21;;;;;;;8.50;2.28;;;;;;;4.61;66.78;101676.56;6312729;22;20019;-77
2022/04/28 00:44:47;;;;;;;4.93;1.60;;;;;;;4.42;66.51;101642.88;6288717;22;20001;-76
2022/04/28 00:50:48;;;;;;;;;;;;;;;;;;;;;
2022/04/28 00:53:27;;;;;;;4.28;1.55;;;;;;;4.41;66.44;101633.06;6295664;22;20022;-77
2022/04/28 00:55:53;;;;;;;3.08;1.60;;;;;;;4.47;66.93;101656.69;6286268;22;20007;-78
2022/04/28 00:58:24;;;;;;;6.15;1.70;;;;;;;4.35;67.53;101646.38;6290057;22;20011;-77
2022/04/28 01:00:53;;;;;;;4.10;1.90;;;;;;;4.33;67.40;101651.13;6289484;22;20061;-78
2022/04/28 01:03:50;;;;;;;3.78;1.63;;;;;;;4.37;67.26;101663.25;6287741;22;20792;-76
2022/04/28 01:06:21;;;;;;;5.07;1.98;;;;;;;4.17;67.43;101635.97;6311993;22;20012;-77
2022/04/28 01:08:59;;;;;;;;;;;;;;;;;;;;;
2022/04/28 01:11:26;;;;;;;5.50;1.48;;;;;;;4.09;67.51;101627.13;6314127;22;20026;-73
2022/04/28 01:13:52;;;;;;;4.68;1.50;;;;;;;4.25;67.72;101663.94;6311487;22;20053;-75
2022/04/28 01:16:23;;;;;;;3.17;1.33;;;;;;;4.12;67.95;101653.84;6311776;22;20018;-74
2022/04/28 01:19:10;;;;;;;4.40;1.75;;;;;;;3.96;67.64;101622.47;6313015;22;19999;-74
2022/04/28 01:22:53;;;;;;;;;;;;;;;;;;;;;
2022/04/28 01:25:26;;;;;;;5.18;2.15;;;;;;;3.86;68.69;101617.34;6165192;23;20021;-71
2022/04/28 01:27:52;;;;;;;3.47;1.73;;;;;;;4.01;68.49;101653.31;6189163;22;20090;-71
2022/04/28 01:30:20;;;;;;;3.75;1.70;;;;;;;3.89;68.84;101649.44;6283405;22;20011;-73
2022/04/28 01:32:45;;;;;;;2.97;1.70;;;;;;;3.76;68.52;101630.34;6278005;22;20007;-72
2022/04/28 01:35:20;;;;;;;6.15;1.70;;;;;;;3.70;68.71;101620.31;6254561;22;20034;-71
2022/04/28 01:37:48;;;;;;;;;;;;;;;3.94;68.68;101663.25;6307709;22;19999;-70
2022/04/28 01:40:16;;;;;;;5.03;1.83;;;;;;;3.97;68.85;101662.88;6304435;22;19911;-70
2022/04/28 01:42:45;;;;;;;2.83;1.67;;;;;;;3.97;69.24;101667.41;6278719;22;20042;-70
2022/04/28 01:45:14;;;;;;;4.03;1.92;;;;;;;3.95;69.35;101662.19;6279936;22;20015;-70
2022/04/28 01:47:40;;;;;;;3.83;1.85;;;;;;;4.02;69.38;101660.41;6282702;22;20004;-72
2022/04/28 01:50:09;;;;;;;5.93;2.33;;;;;;;4.02;69.53;101657.69;6307882;22;20011;-70
2022/04/28 01:55:19;;;;;;;3.53;2.67;;;;;;;4.15;69.27;101664.28;6313532;22;20061;-76
2022/04/28 01:57:46;;;;;;;5.75;2.35;;;;;;;4.12;69.75;101678.22;6317136;22;20007;-76
2022/04/28 02:00:12;;;;;;;4.72;2.42;;;;;;;4.03;69.77;101677.50;6292078;22;20035;-76
2022/04/28 02:02:37;;;;;;;6.68;2.38;;;;;;;4.02;69.81;101682.06;6312968;22;20056;-77
2022/04/28 02:05:04;;;;;;;6.60;2.67;;;;;;;3.97;69.82;101671.00;6313508;22;20004;-76
2022/04/28 02:07:29;;;;;;;8.57;2.80;;;;;;;3.99;70.50;101676.19;6314835;22;20496;-77
2022/04/28 02:09:56;;;;;;;5.72;2.20;;;;;;;3.97;70.63;101675.53;6287745;22;20036;-76
2022/04/28 02:12:22;;;;;;;7.13;2.58;;;;;;;3.96;70.71;101677.41;6286254;22;20015;-74
2022/04/28 02:14:47;;;;;;;5.05;2.03;;;;;;;3.88;70.17;101672.13;6313301;22;20082;-76
2022/04/28 02:17:17;;;;;;;6.20;2.22;;;;;;;3.87;70.39;101673.16;6311759;22;20500;-75
2022/04/28 02:19:43;;;;;;;9.15;3.03;;;;;;;3.84;70.53;101673.53;6311812;22;20007;-74
2022/04/28 02:22:08;;;;;;;10.30;2.63;;;;;;;3.86;70.97;101685.00;6286058;22;20013;-75
2022/04/28 02:24:33;;;;;;;7.35;2.60;;;;;;;3.82;70.92;101686.41;6286045;22;20007;-75
2022/04/28 02:26:59;;;;;;;6.95;2.53;;;;;;;3.84;71.43;101687.03;6285521;22;20014;-73
2022/04/28 02:29:24;;;;;;;6.00;2.50;;;;;;;3.79;71.10;101682.22;6312085;22;20486;-77
2022/04/28 02:31:50;;;;;;;3.90;2.22;;;;;;;3.79;71.16;101686.78;6312566;22;20034;-75
2022/04/28 02:34:15;;;;;;;6.80;2.35;;;;;;;3.76;71.29;101687.19;6286397;22;20047;-75
2022/04/28 02:36:41;;;;;;;6.03;2.97;;;;;;;3.76;72.02;101685.31;6263185;22;20038;-75
2022/04/28 02:39:06;;;;;;;11.15;3.35;;;;;;;3.73;72.44;101677.56;6313078;22;20003;-75
2022/04/28 02:41:32;;;;;;;10.18;2.78;;;;;;;3.70;72.20;101674.41;6257041;22;20037;-75
2022/04/28 02:43:57;;;;;;;5.75;2.67;;;;;;;3.66;71.94;101671.25;6282386;22;20010;-75
2022/04/28 02:46:23;;;;;;;6.18;2.88;;;;;;;3.62;72.06;101683.47;6229106;22;20015;-74
2022/04/28 02:48:49;;;;;;;10.02;2.65;;;;;;;3.52;72.43;101686.47;6232483;22;20012;-74
2022/04/28 02:51:15;;;;;;;8.43;2.92;;;;;;;3.52;72.19;101691.88;6281059;22;20004;-75
2022/04/28 02:53:41;;;;;;;7.93;2.50;;;;;;;3.49;72.75;101692.25;6280827;22;20026;-75
2022/04/28 02:56:06;;;;;;;7.10;2.50;;;;;;;3.48;73.14;101696.00;6282358;22;20075;-75
2022/04/28 02:58:34;;;;;;;4.97;2.45;;;;;;;3.41;73.22;101697.75;6282613;22;20057;-73
2022/04/28 03:01:00;;;;;;;3.42;2.22;;;;;;;3.37;72.83;101704.56;6282533;22;20000;-73
2022/04/28 03:03:33;;;;;;;5.72;2.53;;;;;;;3.35;73.23;101699.34;6256190;22;20031;-75
2022/04/28 03:11:27;;;;;;;13.70;3.05;;;;;;;3.42;73.69;101677.81;6284530;22;20055;-75
2022/04/28 03:13:54;;;;;;;4.85;2.88;;;;;;;3.45;73.57;101690.97;6255900;22;20011;-74
2022/04/28 03:16:20;;;;;;;7.40;2.58;;;;;;;3.44;73.13;101678.44;6229829;22;20018;-73
2022/04/28 03:18:46;;;;;;;6.82;2.67;;;;;;;3.29;73.67;101654.97;6228641;22;20576;-72
2022/04/28 03:21:13;;;;;;;8.70;2.97;;;;;;;3.44;73.14;101678.44;6253645;22;20094;-74
2022/04/28 03:23:40;;;;;;;3.72;2.38;;;;;;;3.47;73.77;101694.31;6252537;22;20083;-72
2022/04/28 03:26:06;;;;;;;6.72;2.65;;;;;;;3.39;72.89;101686.28;6228055;22;20004;-73
2022/04/28 03:28:35;;;;;;;4.82;2.78;;;;;;;3.33;73.10;101698.72;6279742;22;20007;-73
2022/04/28 03:31:05;;;;;;;7.47;2.45;;;;;;;3.20;73.40;101683.13;6276686;22;20022;-72
2022/04/28 03:33:32;;;;;;;7.70;2.55;;;;;;;3.22;73.24;101697.28;6254341;22;20103;-72
2022/04/28 03:35:58;;;;;;;10.23;2.72;;;;;;;3.35;73.38;101712.88;6275567;22;20007;-73
2022/04/28 03:38:24;;;;;;;9.63;2.80;;;;;;;3.20;73.54;101693.94;6251598;22;20015;-71
2022/04/28 03:40:53;;;;;;;11.48;2.88;;;;;;;3.30;73.92;101699.91;6227987;22;20470;-73
2022/04/28 03:43:24;;;;;;;8.63;2.83;;;;;;;3.22;73.20;101681.06;6255904;22;20017;-72
2022/04/28 03:45:59;;;;;;;7.45;2.40;;;;;;;3.43;73.63;101699.25;6256239;22;20022;-71
2022/04/28 03:48:25;;;;;;;9.57;2.65;;;;;;;3.43;73.40;101688.44;6262477;22;20094;-71
2022/04/28 03:50:51;;;;;;;9.55;2.47;;;;;;;3.46;73.18;101676.38;6282310;22;20018;-72
2022/04/28 03:53:30;;;;;;;10.05;3.28;;;;;;;3.53;73.17;101680.00;6282595;22;20011;-72
2022/04/28 03:55:58;;;;;;;7.07;2.92;;;;;;;3.52;73.16;101670.25;6259458;22;20015;-73
2022/04/28 03:58:32;;;;;;;8.45;2.60;;;;;;;3.69;72.74;101686.25;6314422;22;19999;-74
2022/04/28 04:00:59;;;;;;;5.13;2.42;;;;;;;3.63;72.76;101669.75;6259745;22;20098;-75
2022/04/28 04:03:26;;;;;;;8.02;2.72;;;;;;;3.59;72.70;101665.75;6285023;22;20049;-74
2022/04/28 04:05:52;;;;;;;6.28;3.00;;;;;;;3.65;72.34;101674.97;6284278;22;20007;-73
2022/04/28 04:08:18;;;;;;;7.82;2.80;;;;;;;3.53;72.46;101654.84;6286011;22;20413;-74
2022/04/28 04:10:44;;;;;;;4.18;2.30;;;;;;;3.60;72.50;101672.81;6286340;22;20057;-72
2022/04/28 04:13:10;;;;;;;5.40;2.67;;;;;;;3.68;72.61;101680.03;6288243;22;20022;-74
2022/04/28 04:15:35;;;;;;;4.13;2.38;;;;;;;3.59;72.76;101687.41;6289192;22;20014;-73
2022/04/28 04:18:02;;;;;;;10.48;2.90;;;;;;;3.40;73.48;101666.34;6262044;22;20039;-73
2022/04/28 04:20:29;;;;;;;5.95;2.63;;;;;;;3.42;73.14;101691.34;6315773;22;19995;-74
2022/04/28 04:22:58;;;;;;;7.82;2.53;;;;;;;3.39;73.22;101675.47;6312907;22;20032;-73
2022/04/28 04:25:29;;;;;;;6.28;2.75;;;;;;;3.42;73.42;101691.34;6285269;22;20026;-72
2022/04/28 04:27:54;;;;;;;9.48;2.60;;;;;;;3.27;73.46;101675.94;6256655;22;20008;-73
2022/04/28 04:33:04;;;;;;;6.57;2.40;;;;;;;3.22;73.10;101691.88;6288961;22;20049;-74
2022/04/28 04:35:30;;;;;;;7.45;2.47;;;;;;;3.32;72.91;101718.66;6285348;22;20224;-73
2022/04/28 04:37:55;;;;;;;6.20;2.75;;;;;;;3.25;74.06;101696.91;6281361;22;20010;-73
2022/04/28 04:40:21;;;;;;;5.10;2.63;;;;;;;3.28;73.77;101699.25;6260619;22;19999;-74
2022/04/28 04:42:51;;;;;;;10.82;2.65;;;;;;;3.36;73.42;101714.56;6255529;22;20031;-73
2022/04/28 04:45:47;;;;;;;7.88;2.83;;;;;;;3.38;73.79;101717.91;6235642;22;20012;-71
2022/04/28 04:48:12;;;;;;;;;;;;;;;3.40;73.58;101720.41;6229666;22;20012;-72
2022/04/28 04:50:39;;;;;;;5.13;2.08;;;;;;;3.30;73.28;101699.91;6227521;22;19913;-74
2022/04/28 04:53:06;;;;;;;11.02;2.75;;;;;;;3.35;73.53;101712.88;6254793;22;20424;-76
2022/04/28 04:55:39;;;;;;;7.68;2.70;;;;;;;3.39;73.06;101724.13;6282724;22;20101;-73
2022/04/28 04:58:05;;;;;;;4.95;2.40;;;;;;;3.28;73.35;101711.94;6284737;22;20070;-73
2022/04/28 05:00:31;;;;;;;8.68;2.88;;;;;;;3.40;73.36;101731.22;6260899;22;20008;-73
2022/04/28 05:02:59;;;;;;;3.83;2.33;;;;;;;3.38;74.05;101733.28;6286169;22;20011;-71
2022/04/28 05:05:25;;;;;;;3.10;2.22;;;;;;;3.37;73.78;101723.50;6233230;22;20008;-71
2022/04/28 05:07:51;;;;;;;6.88;2.58;;;;;;;3.36;73.70;101714.56;6282787;22;20010;-72
2022/04/28 05:10:17;;;;;;;8.45;3.53;;;;;;;3.43;74.02;101739.81;6282327;22;20000;-74
2022/04/28 05:12:51;;;;;;;4.32;2.40;;;;;;;3.49;74.21;101757.19;6230672;22;20449;-73
2022/04/28 05:15:52;;;;;;;5.70;2.30;;;;;;;3.42;73.99;101734.59;6260185;22;20020;-74
2022/04/28 05:18:20;;;;;;;9.55;3.05;;;;;;;3.51;74.28;101748.88;6224214;22;20012;-76
2022/04/28 05:20:54;;;;;;;8.02;3.03;;;;;;;3.62;73.93;101767.31;6258471;22;20002;-75
2022/04/28 05:23:22;;;;;;;10.38;2.85;;;;;;;3.35;74.07;101706.63;6281189;22;20007;-71
2022/04/28 05:25:48;;;;;;;6.57;2.80;;;;;;;3.64;73.59;101755.28;6250149;22;20038;-72
2022/04/28 05:28:14;;;;;;;4.97;2.92;;;;;;;3.80;73.75;101775.06;6226487;22;20003;-70
2022/04/28 05:30:52;;;;;;;8.95;3.00;;;;;;;3.64;73.61;101747.16;6253320;22;20491;-71
2022/04/28 05:33:18;;;;;;;8.02;2.45;;;;;;;3.79;73.33;101771.50;6228679;22;20012;-71
2022/04/28 05:35:43;;;;;;;7.25;2.88;;;;;;;3.93;73.61;101782.50;6251651;22;20417;-70
2022/04/28 05:38:09;;;;;;;6.93;2.92;;;;;;;3.98;73.40;101777.38;6225849;22;20312;-70
2022/04/28 05:40:41;;;;;;;7.70;3.15;;;;;;;4.00;73.34;101765.34;6277283;22;20422;-69
2022/04/28 05:45:51;;;;;;;8.93;3.65;;;;;;;4.25;72.63;101767.72;6279664;22;20031;-69
2022/04/28 05:48:19;;;;;;;7.15;2.90;;;;;;;4.33;72.68;101758.63;6251797;22;20008;-69
2022/04/28 05:50:45;;;;;;;3.53;2.40;;;;;;;4.43;72.50;101766.44;6252917;22;20368;-74
2022/04/28 05:53:10;;;;;;;4.28;2.40;;;;;;;4.51;72.21;101779.84;6282362;22;19999;-74
2022/04/28 05:55:37;;;;;;;5.32;2.22;;;;;;;4.52;71.95;101773.41;6285999;22;20008;-76
2022/04/28 05:58:03;;;;;;;6.25;2.45;;;;;;;4.58;72.38;101778.03;6286416;22;20123;-74
2022/04/28 06:00:30;;;;;;;11.77;3.63;;;;;;;4.64;71.87;101782.69;6256658;22;20040;-72
2022/04/28 06:02:56;;;;;;;13.30;3.38;;;;;;;4.66;71.71;101786.06;6282269;22;20015;-71
2022/04/28 06:05:21;;;;;;;6.95;2.88;;;;;;;4.68;71.45;101773.13;6284581;22;20008;-72
2022/04/28 06:07:47;;;;;;;5.88;2.53;;;;;;;4.71;71.98;101775.47;6281103;22;20000;-75
2022/04/28 06:10:13;;;;;;;3.97;2.42;;;;;;;4.79;71.65;101779.94;6232944;22;20011;-74
2022/04/28 06:12:42;;;;;;;6.55;2.58;;;;;;;4.87;71.39;101787.91;6285636;22;20015;-74
2022/04/28 06:15:09;;;;;;;6.40;2.95;;;;;;;4.97;71.65;101784.88;6288242;22;20004;-76
2022/04/28 06:17:38;;;;;;;5.97;3.22;;;;;;;5.06;71.27;101780.16;6287872;22;19999;-74
2022/04/28 06:20:04;;;;;;;14.50;2.97;;;;;;;5.19;70.91;101782.13;6288477;22;20074;-74
2022/04/28 06:22:48;;;;;;;5.28;2.70;;;;;;;5.35;70.68;101789.97;6256703;22;20011;-74
2022/04/28 06:25:25;;;;;;;10.13;2.55;;;;;;;5.22;69.81;101741.06;6257623;22;20007;-73
2022/04/28 06:31:25;;;;;;;6.65;2.40;;;;;;;5.79;69.55;101796.09;6236907;22;20027;-74
2022/04/28 06:37:43;;;;;;;4.18;2.30;;;;;;;6.10;68.03;101803.81;6264550;22;20347;-73
2022/04/28 06:40:56;;;;;;;6.15;2.95;;;;;;;5.90;67.75;101743.09;6254696;22;20003;-72
2022/04/28 06:43:37;;;;;;;3.38;1.92;;;;;;;6.47;67.84;101796.19;6250432;22;20107;-71
2022/04/28 06:46:51;;;;;;;8.50;2.20;;;;;;;6.72;67.18;101801.03;6277287;22;20011;-70
2022/04/28 06:49:21;;;;;;;5.78;2.80;;;;;;;6.75;65.75;101778.88;6248199;22;20091;-72
2022/04/28 06:51:47;;;;;;;8.13;2.38;;;;;;;7.03;65.96;101804.22;6251008;22;20331;-74
2022/04/28 06:54:24;;;;;;;8.73;2.97;;;;;;;7.03;65.15;101791.44;6278169;22;20022;-71
2022/04/28 06:56:50;;;;;;;8.60;2.92;;;;;;;7.20;64.67;101801.91;6276255;22;20448;-70
2022/04/28 06:59:20;;;;;;;4.38;2.10;;;;;;;7.39;65.04;101811.09;6247888;22;20023;-75
2022/04/28 07:01:46;;;;;;;4.85;1.70;;;;;;;7.62;65.08;101810.66;6226040;22;20014;-70
2022/04/28 07:04:12;;;;;;;3.28;1.88;;;;;;;7.61;64.25;101792.66;6276425;22;20007;-70
2022/04/28 07:06:38;;;;;;;8.40;2.70;;;;;;;7.96;64.46;101805.97;6275230;22;20348;-70
2022/04/28 07:09:03;;;;;;;6.57;2.13;;;;;;;8.08;64.07;101809.69;6249579;22;20065;-71
2022/04/28 07:11:29;;;;;;;7.55;2.10;;;;;;;8.19;62.93;101797.28;6249979;22;20010;-70
2022/04/28 07:13:54;;;;;;;7.10;2.50;;;;;;;8.36;62.76;101794.91;6278257;22;20077;-72
2022/04/28 07:16:26;;;;;;;8.55;2.10;;;;;;;8.44;62.11;101794.69;6279842;22;20054;-74
2022/04/28 07:18:51;;;;;;;4.40;2.10;;;;;;;8.67;62.43;101812.38;6230444;22;20024;-75
2022/04/28 07:22:02;;;;;;;3.58;2.30;;;;;;;8.94;62.51;101828.56;6254169;22;20010;-74
2022/04/28 07:24:28;;;;;;;5.45;2.50;;;;;;;8.80;61.16;101779.53;6266749;22;19996;-73
2022/04/28 07:26:54;;;;;;;5.97;2.38;;;;;;;9.16;61.08;101812.66;6245756;22;20008;-73
2022/04/28 07:29:27;;;;;;;4.95;1.85;;;;;;;9.17;60.43;101785.13;6242402;22;20068;-72
2022/04/28 07:31:55;;;;;;;6.93;1.98;;;;;;;9.31;60.31;101790.47;6245951;22;20081;-73
2022/04/28 07:34:26;;;;;;;9.57;2.50;;;;;;;9.54;59.86;101812.50;6272943;22;20000;-74
2022/04/28 07:36:51;;;;;;;6.53;2.65;;;;;;;9.52;59.92;101792.78;6222999;22;20654;-73
2022/04/28 07:39:38;;;;;;;8.70;2.63;;;;;;;9.71;59.47;101817.38;6251196;22;20041;-71
2022/04/28 07:42:41;;;;;;;;;;;;;;;;;;;;;
2022/04/28 07:45:17;;;;;;;;;;;;;;;;;;;;;
2022/04/28 07:47:53;;;;;;;;;;;;;;;;;;;;;
2022/04/28 07:50:30;;;;;;;9.20;2.63;;;;;;;10.47;57.03;101818.00;6285645;22;20015;-76
2022/04/28 07:53:26;;;;;;;7.60;2.30;;;;;;;10.96;56.71;101856.22;6288940;22;20026;-74
2022/04/28 07:59:30;;;;;;;3.90;1.35;;;;;;;11.43;55.17;101828.91;6252675;22;20422;-76
2022/04/28 08:05:15;;;;;;;7.53;2.65;;;;;;;12.11;51.72;101820.31;6242457;22;20007;-75
2022/04/28 08:07:53;;;;;;;4.85;2.08;;;;;;;12.24;51.80;101828.28;6255025;22;20011;-77
2022/04/28 08:10:28;;;;;;;6.53;2.50;;;;;;;12.52;50.71;101834.84;6234703;22;20422;-76
2022/04/28 08:13:25;;;;;;;10.02;2.33;;;;;;;12.59;50.95;101808.09;6285167;22;20014;-77
2022/04/28 08:16:21;;;;;;;4.72;2.00;;;;;;;13.02;49.48;101833.28;6270443;22;20007;-77
2022/04/28 08:18:56;;;;;;;;;;;;;;;;;;;;;
2022/04/28 08:22:13;;;;;;;8.50;2.17;;;;;;;13.98;48.22;101862.56;6260530;22;20031;-74
2022/04/28 08:24:48;;;;;;;4.57;2.10;;;;;;;14.27;46.55;101849.47;6242854;22;20006;-77
2022/04/28 08:27:36;;;;;;;6.85;2.00;;;;;;;14.22;46.39;101845.81;6257128;22;20430;-76
2022/04/28 08:30:07;;;;;;;5.72;1.98;;;;;;;13.93;46.97;101810.22;6260957;22;20075;-77
2022/04/28 08:32:43;;;;;;;10.15;2.10;;;;;;;14.01;46.31;101823.53;6260202;22;20007;-77
2022/04/28 08:35:47;;;;;;;4.18;2.10;;;;;;;14.08;46.84;101857.19;6288313;22;20000;-76
2022/04/28 08:45:34;;;;;;;;;;;;;;;;;;;;;
2022/04/28 08:48:03;;;;;;;7.93;2.75;;;;;;;14.36;45.92;101849.84;6303424;22;20031;-77
2022/04/28 08:51:19;;;;;;;5.40;2.35;;;;;;;14.14;46.33;101838.84;6263467;22;20082;-74
2022/04/28 09:04:40;;;;;;;7.83;2.30;;;;;;;14.97;44.43;101829.59;6046171;23;20018;-76
2022/04/28 09:07:48;;;;;;;7.53;2.38;;;;;;;15.31;44.17;101863.22;6045750;23;20370;-79
2022/04/28 09:14:50;;;;;;;8.85;1.88;;;;;;;15.52;43.82;101866.13;6071604;23;20003;-77
2022/04/28 09:25:35;;;;;;;6.33;2.07;;;;;;;15.71;43.13;101842.56;6018471;23;20077;-81
2022/04/28 09:28:14;;;;;;;5.28;2.08;;;;;;;15.96;42.91;101873.34;6016988;23;20023;-76
2022/04/28 09:34:34;;;;;;;;;;;;;;;;;;;;;
2022/04/28 09:38:11;;;;;;;;;;;;;;;;;;;;;
2022/04/28 09:54:35;;;;;;;;;;;;;;;17.70;40.01;101877.66;5959043;24;20012;-77
2022/04/28 10:01:35;;;;;;;;;;;;;;;;;;;;;
2022/04/28 10:07:54;;;;;;;5.55;2.28;;;;;;;17.36;40.02;101879.03;5973546;24;20064;-80
2022/04/28 10:17:40;;;;;;;4.00;2.15;;;;;;;18.13;38.66;101878.09;6124763;23;20021;-80
2022/04/28 10:48:41;;;;;;;3.90;1.88;;;;;;;20.95;33.79;101890.63;5968077;23;20026;-77
2022/04/28 10:52:06;;;;;;;4.85;1.88;;;;;;;21.10;32.60;101870.94;6015987;23;20012;-78
2022/04/28 10:55:18;;;;;;;;;;;;;;;;;;;;;
2022/04/28 11:15:03;;;;;;;;;;;;;;;;;;;;;
2022/04/28 11:17:48;;;;;;;;;;;;;;;;;;;;;
2022/04/28 11:20:49;;;;;;;;;;;;;;;;;;;;;
2022/04/28 11:24:21;;;;;;;;;;;;;;;;;;;;;
2022/04/28 11:27:53;;;;;;;;;;;;;;;;;;;;;
2022/04/28 11:41:51;;;;;;;5.22;2.08;;;;;;;24.00;28.42;101889.53;5755263;24;20027;-77
2022/04/28 11:44:53;;;;;;;4.38;1.63;;;;;;;24.75;27.84;101877.59;5734573;24;20055;-78
2022/04/28 11:47:46;;;;;;;4.53;1.83;;;;;;;24.83;26.86;101885.16;5734466;25;20025;-79
2022/04/28 11:54:31;;;;;;;;;;;;;;;;;;;;;
2022/04/28 12:01:11;;;;;;;4.35;1.98;;;;;;;23.58;27.70;101882.56;5763483;24;20080;-75
2022/04/28 12:03:39;;;;;;;7.00;2.72;;;;;;;23.16;27.55;101878.03;5812937;24;20011;-72
2022/04/28 12:06:05;;;;;;;8.82;2.75;;;;;;;22.58;28.24;101867.66;5799969;24;20064;-71
2022/04/28 12:08:32;;;;;;;8.38;2.78;;;;;;;22.27;28.99;101868.28;5892552;24;20022;-71
2022/04/28 16:15:19;;;;;;;5.00;2.75;;;;;;;28.34;19.60;101758.00;6316599;22;20022;-77
2022/04/28 22:23:07;;;;;;;5.05;3.40;;;;;;;7.72;63.48;101889.19;6235404;22;21230;-75
2022/04/28 22:25:33;;;;;;;5.40;3.88;;;;;;;7.57;63.54;101873.09;6315337;22;20007;-74
2022/04/28 22:28:26;;;;;;;9.15;3.67;;;;;;;7.65;63.79;101889.19;6327318;22;20040;-74
2022/04/28 22:31:41;;;;;;;4.28;3.40;;;;;;;7.47;63.65;101882.50;6283827;22;20010;-74
2022/04/28 22:34:19;;;;;;;;;;;;;;;;;;;;;
2022/04/28 22:38:08;;;;;;;;;;;;;;;;;;;;;
2022/04/28 22:43:57;;;;;;;13.77;4.35;;;;;;;7.21;64.73;101875.16;6132766;23;20171;-74
2022/04/28 22:50:42;;;;;;;7.68;4.95;;;;;;;7.24;65.66;101884.78;6237393;22;20015;-74
2022/04/28 22:53:08;;;;;;;12.23;6.00;;;;;;;7.27;66.28;101895.25;6317560;22;20003;-73
2022/04/28 22:55:33;;;;;;;9.85;5.15;;;;;;;7.28;66.47;101896.94;6284646;22;20061;-73
2022/04/28 22:57:59;;;;;;;9.60;5.10;;;;;;;7.28;65.90;101891.50;6313436;22;20078;-75
2022/04/28 23:00:24;;;;;;;5.20;3.55;;;;;;;7.32;65.57;101906.38;6289440;22;20061;-74
2022/04/28 23:02:50;;;;;;;5.07;3.63;;;;;;;7.27;65.19;101906.13;6285826;22;20003;-74
2022/04/28 23:05:15;;;;;;;7.32;3.58;;;;;;;7.28;65.74;101899.66;6310829;22;20670;-71
2022/04/28 23:07:41;;;;;;;4.18;2.90;;;;;;;7.33;64.81;101903.44;6283553;22;20330;-71
2022/04/28 23:10:14;;;;;;;6.80;3.47;;;;;;;7.39;65.09;101920.81;6308955;22;20027;-71
2022/04/28 23:12:41;;;;;;;5.15;3.22;;;;;;;7.37;64.98;101914.72;6309350;22;20010;-73
2022/04/28 23:15:08;;;;;;;7.03;3.28;;;;;;;7.34;65.44;101926.03;6313155;22;19999;-73
2022/04/28 23:17:35;;;;;;;9.80;4.55;;;;;;;7.26;65.42;101927.06;6283434;22;20061;-74
2022/04/28 23:20:05;;;;;;;6.70;4.07;;;;;;;7.24;65.53;101929.19;6314985;22;20461;-78
2022/04/28 23:22:30;;;;;;;4.32;3.78;;;;;;;7.22;65.63;101931.25;6322867;22;19999;-73
2022/04/28 23:24:56;;;;;;;7.53;5.00;;;;;;;7.14;65.44;101929.56;6312677;22;20015;-72
2022/04/28 23:27:21;;;;;;;10.07;4.18;;;;;;;7.03;66.15;101923.91;6289417;22;20015;-74
2022/04/28 23:29:47;;;;;;;8.45;4.35;;;;;;;7.03;66.55;101935.59;6315177;22;20007;-75
2022/04/28 23:32:12;;;;;;;7.32;4.63;;;;;;;6.93;66.15;101927.00;6288640;22;20007;-75
2022/04/28 23:40:07;;;;;;;8.15;4.30;;;;;;;6.75;66.90;101925.69;6312749;22;20019;-75
2022/04/28 23:42:35;;;;;;;5.60;3.90;;;;;;;6.72;67.33;101925.28;6288719;22;20006;-76
2022/04/28 23:45:07;;;;;;;6.70;4.05;;;;;;;6.74;67.00;101929.44;6285948;22;20077;-77
2022/04/28 23:47:39;;;;;;;5.25;4.05;;;;;;;6.63;67.54;101911.84;6287268;22;20312;-76
2022/04/28 23:50:05;;;;;;;6.07;4.40;;;;;;;6.59;67.21;101915.19;6308279;22;20103;-76
2022/04/28 23:55:17;;;;;;;8.90;4.70;;;;;;;6.46;68.15;101897.75;6289160;22;20014;-76
2022/04/28 23:57:45;;;;;;;11.60;5.38;;;;;;;6.51;68.74;101902.59;6285941;22;20007;-75
